Lake Elsinore, CA (92532)

7:35 AM PDT en Agosto 20, 2014 (GMT -0700)
Canyon Lake | Change Station
CLOSE
Current Station
Estación meteorológica personal
Location: Canyon Lake, CA
Altura: 1460 ft
Estaciones meteorológicas cercanas

Alt 1460 ft 33.69 °N, 117.27 °W | Updated 2 seconds ago

Mostly Cloudy
Muy nublado
63.5 ° F
Sensación térmica 63.5 ° F
N
0.0
Viento Variable Viento desde Norte
Gusts 3.1 mph

Hoy
Alta -- | Baja -- ° F
--% Posibilidad de precipitaciones
Ayer
Alta -- | Baja -- ° F
Precip. -- pul
6:14 AM 7:29 PM
Creciente menguante, 21% visible
Presión 29.93 pul
Visibilidad 5.0 Millas
Nubes Nubes dispersas 400 ft
Nubes dispersas 5000 ft
Muy nublado 10000 ft
Punto de rocío 62 ° F
Humedad 95%
Precipitaciones 0.05 pul
Espesor de la nieve No disponible.
UV 1.0 de una escala de 12
Polen 5.00 de una escala de 12
PM2.5 Moderada
Flu Activity No disponible.
METAR KF70 201415Z AUTO 00000KT 5SM SCT004 SCT050 BKN100 17/16 A2993 RMK AO1

More Conditions Fewer Conditions

Presión 29.93 pul
Visibilidad 5.0 Millas
Nubes Nubes dispersas 400 ft
Nubes dispersas 5000 ft
Muy nublado 10000 ft
Punto de rocío 62 ° F
Humedad 95%
Precipitaciones 0.05 pul
Espesor de la nieve No disponible.
UV 1.0 de una escala de 12
Polen 5.00 de una escala de 12
PM2.5 Moderada
Flu Activity No disponible.
METAR KF70 201415Z AUTO 00000KT 5SM SCT004 SCT050 BKN100 17/16 A2993 RMK AO1

More Conditions Fewer Conditions

10-Day Weather Forecast

Almanac

Astronomía

Aug. 20, 2014 Salida Puesta
Hora real 6:14 AM PDT 7:29 PM PDT
Crepúsculo civil 5:48 AM PDT 7:55 PM PDT
Crepúsculo náutico 5:17 AM PDT 8:26 PM PDT
Crepúsculo astronómico 4:45 AM PDT 8:58 PM PDT
Luna 2:03 AM PDT 4:13 PM PDT
Horas de luz 14h 06m
Horas de luz
13h 14m
Tomorrow will be 1m 53s shorter.
Creciente menguante, 21% of the Moon is Illuminated
Hoy
Creciente menguante
Ago 25
Nueva
Sep 2
Cuarto creciente
Sep 8
Luna llena
Sep 15
Cuarto menguante

Extremos de hoy

Máximos del estado Bajos del estado

Community

WunderPhotos

Upload Photos

1,745,654 ¡fotos cargadas!

Nearby

Calidad del aire

  Calidad del aire Índice AQ Contaminante
Ayer Buena
PM10
Ayer Buena
OZONE
Real Moderada
PM2.5
Miércoles Buena
PM10
Miércoles Moderada
OZONE
Miércoles Buena
CO
Miércoles Buena
NO2

Grosos de nieve

Estación Profundido Altura
Leavitt Lake 0 in 9400 ft
Leavitt Meadows 1 in 7200 ft
Sonora Pass 0 in 8800 ft
Summit Meadow 0 in 9122 ft
Ebbetts Pass 0 in 8700 ft

Actividad de terremotos

Ciudad Distance Mag. Tiempo y dato
Malibu Beach, California 85 Millas 3.4 10:03 AM PDT
2014-08-15
Yucca Valley, California 65 Millas 3.8 8:57 PM PDT
2014-08-14
Salton City, California 80 Millas 2.6 6:58 AM PDT
2014-08-14
Ojai, California 121 Millas 2.6 8:43 PM PDT
2014-08-13
Magnitud mínima muestra es 2,5.

Temperaturas de aguas costeras

Lugar Temperatura
La Jolla, CA 73.0 ° F
San Diego, CA 72.0 ° F

Estaciones meteorológicas cercanas